sensor_id;sensor_type;location;lat;lon;timestamp;P1;durP1;ratioP1;P2;durP2;ratioP2
80136;SDS011;69466;55.948;37.484;2023-06-24T00:00:08;13.52;;;10.00;;
80136;SDS011;69466;55.948;37.484;2023-06-24T00:02:38;13.82;;;10.23;;
80136;SDS011;69466;55.948;37.484;2023-06-24T00:05:04;13.50;;;10.45;;
80136;SDS011;69466;55.948;37.484;2023-06-24T00:07:32;15.07;;;9.82;;
80136;SDS011;69466;55.948;37.484;2023-06-24T00:10:10;12.57;;;9.43;;
80136;SDS011;69466;55.948;37.484;2023-06-24T00:12:39;12.55;;;9.35;;
80136;SDS011;69466;55.948;37.484;2023-06-24T00:15:07;12.20;;;9.57;;
80136;SDS011;69466;55.948;37.484;2023-06-24T00:17:35;12.25;;;9.02;;
80136;SDS011;69466;55.948;37.484;2023-06-24T00:20:01;13.50;;;9.40;;
80136;SDS011;69466;55.948;37.484;2023-06-24T00:22:30;12.90;;;9.55;;
80136;SDS011;69466;55.948;37.484;2023-06-24T00:24:56;13.27;;;9.98;;
80136;SDS011;69466;55.948;37.484;2023-06-24T00:27:22;11.48;;;8.63;;
80136;SDS011;69466;55.948;37.484;2023-06-24T00:29:47;11.20;;;8.00;;
80136;SDS011;69466;55.948;37.484;2023-06-24T00:32:13;9.18;;;7.15;;
80136;SDS011;69466;55.948;37.484;2023-06-24T00:34:39;9.80;;;6.00;;
80136;SDS011;69466;55.948;37.484;2023-06-24T00:37:09;8.02;;;5.15;;
80136;SDS011;69466;55.948;37.484;2023-06-24T00:39:35;6.85;;;4.70;;
80136;SDS011;69466;55.948;37.484;2023-06-24T00:42:01;7.18;;;4.47;;
80136;SDS011;69466;55.948;37.484;2023-06-24T00:44:27;6.05;;;4.28;;
80136;SDS011;69466;55.948;37.484;2023-06-24T00:46:53;6.00;;;4.10;;
80136;SDS011;69466;55.948;37.484;2023-06-24T00:49:20;5.97;;;4.10;;
80136;SDS011;69466;55.948;37.484;2023-06-24T00:51:45;5.80;;;3.72;;
80136;SDS011;69466;55.948;37.484;2023-06-24T00:54:19;5.40;;;3.50;;
80136;SDS011;69466;55.948;37.484;2023-06-24T00:56:45;5.95;;;4.18;;
80136;SDS011;69466;55.948;37.484;2023-06-24T00:59:14;8.57;;;3.70;;
80136;SDS011;69466;55.948;37.484;2023-06-24T01:01:42;7.95;;;4.22;;
80136;SDS011;69466;55.948;37.484;2023-06-24T01:04:10;6.85;;;4.00;;
80136;SDS011;69466;55.948;37.484;2023-06-24T01:06:37;5.70;;;3.80;;
80136;SDS011;69466;55.948;37.484;2023-06-24T01:09:09;5.45;;;3.65;;
80136;SDS011;69466;55.948;37.484;2023-06-24T01:11:35;5.32;;;3.67;;
80136;SDS011;69466;55.948;37.484;2023-06-24T01:14:01;5.40;;;3.00;;
80136;SDS011;69466;55.948;37.484;2023-06-24T01:33:19;4.85;;;2.90;;
80136;SDS011;69466;55.948;37.484;2023-06-24T01:35:50;5.82;;;3.25;;
80136;SDS011;69466;55.948;37.484;2023-06-24T01:38:22;8.25;;;6.28;;
80136;SDS011;69466;55.948;37.484;2023-06-24T01:40:52;4.75;;;2.88;;
80136;SDS011;69466;55.948;37.484;2023-06-24T01:43:19;5.93;;;3.00;;
80136;SDS011;69466;55.948;37.484;2023-06-24T01:45:49;6.07;;;4.00;;
80136;SDS011;69466;55.948;37.484;2023-06-24T01:48:19;5.03;;;2.90;;
80136;SDS011;69466;55.948;37.484;2023-06-24T01:51:07;5.05;;;2.45;;
80136;SDS011;69466;55.948;37.484;2023-06-24T01:53:44;5.35;;;2.45;;
80136;SDS011;69466;55.948;37.484;2023-06-24T01:56:14;4.20;;;2.47;;
80136;SDS011;69466;55.948;37.484;2023-06-24T01:58:41;3.92;;;2.08;;
80136;SDS011;69466;55.948;37.484;2023-06-24T02:01:08;4.10;;;2.30;;
80136;SDS011;69466;55.948;37.484;2023-06-24T02:03:35;4.30;;;1.90;;
80136;SDS011;69466;55.948;37.484;2023-06-24T02:06:03;4.32;;;1.77;;
80136;SDS011;69466;55.948;37.484;2023-06-24T02:08:31;2.88;;;1.50;;
80136;SDS011;69466;55.948;37.484;2023-06-24T02:11:00;2.70;;;1.25;;
80136;SDS011;69466;55.948;37.484;2023-06-24T02:13:28;2.95;;;1.30;;
80136;SDS011;69466;55.948;37.484;2023-06-24T02:15:58;4.05;;;1.20;;
80136;SDS011;69466;55.948;37.484;2023-06-24T02:18:26;3.38;;;1.17;;
80136;SDS011;69466;55.948;37.484;2023-06-24T02:20:53;2.88;;;1.10;;
80136;SDS011;69466;55.948;37.484;2023-06-24T02:23:20;2.50;;;1.05;;
80136;SDS011;69466;55.948;37.484;2023-06-24T02:25:47;2.25;;;0.88;;
80136;SDS011;69466;55.948;37.484;2023-06-24T02:28:15;1.75;;;0.75;;
80136;SDS011;69466;55.948;37.484;2023-06-24T02:30:43;4.18;;;1.35;;
80136;SDS011;69466;55.948;37.484;2023-06-24T02:33:10;2.47;;;1.13;;
80136;SDS011;69466;55.948;37.484;2023-06-24T02:35:37;3.33;;;1.70;;
80136;SDS011;69466;55.948;37.484;2023-06-24T02:38:03;3.30;;;1.10;;
80136;SDS011;69466;55.948;37.484;2023-06-24T02:40:29;2.88;;;1.40;;
80136;SDS011;69466;55.948;37.484;2023-06-24T02:42:56;4.03;;;1.60;;
80136;SDS011;69466;55.948;37.484;2023-06-24T02:45:24;2.28;;;1.00;;
80136;SDS011;69466;55.948;37.484;2023-06-24T02:47:50;4.43;;;1.10;;
80136;SDS011;69466;55.948;37.484;2023-06-24T02:50:18;3.97;;;1.40;;
80136;SDS011;69466;55.948;37.484;2023-06-24T02:52:44;4.25;;;1.40;;
80136;SDS011;69466;55.948;37.484;2023-06-24T02:55:12;2.83;;;1.20;;
80136;SDS011;69466;55.948;37.484;2023-06-24T02:57:46;3.70;;;1.20;;
80136;SDS011;69466;55.948;37.484;2023-06-24T03:00:25;3.30;;;1.20;;
80136;SDS011;69466;55.948;37.484;2023-06-24T03:03:15;3.63;;;1.20;;
80136;SDS011;69466;55.948;37.484;2023-06-24T03:05:50;2.90;;;1.40;;
80136;SDS011;69466;55.948;37.484;2023-06-24T03:08:18;3.10;;;1.45;;
80136;SDS011;69466;55.948;37.484;2023-06-24T03:10:47;2.45;;;1.30;;
80136;SDS011;69466;55.948;37.484;2023-06-24T03:13:19;3.08;;;1.33;;
80136;SDS011;69466;55.948;37.484;2023-06-24T03:15:50;2.88;;;1.08;;
80136;SDS011;69466;55.948;37.484;2023-06-24T03:18:16;2.92;;;1.25;;
80136;SDS011;69466;55.948;37.484;2023-06-24T03:20:43;3.20;;;1.30;;
80136;SDS011;69466;55.948;37.484;2023-06-24T03:23:14;3.83;;;1.95;;
80136;SDS011;69466;55.948;37.484;2023-06-24T03:25:40;2.47;;;1.17;;
80136;SDS011;69466;55.948;37.484;2023-06-24T03:28:07;4.65;;;1.20;;
80136;SDS011;69466;55.948;37.484;2023-06-24T03:30:36;3.00;;;1.23;;
80136;SDS011;69466;55.948;37.484;2023-06-24T03:33:02;2.47;;;1.00;;
80136;SDS011;69466;55.948;37.484;2023-06-24T03:35:28;2.75;;;1.00;;
80136;SDS011;69466;55.948;37.484;2023-06-24T03:38:00;3.10;;;1.08;;
80136;SDS011;69466;55.948;37.484;2023-06-24T03:40:25;2.60;;;0.88;;
80136;SDS011;69466;55.948;37.484;2023-06-24T03:42:51;2.70;;;1.48;;
80136;SDS011;69466;55.948;37.484;2023-06-24T03:45:17;2.75;;;1.00;;
80136;SDS011;69466;55.948;37.484;2023-06-24T03:47:44;2.28;;;0.93;;
80136;SDS011;69466;55.948;37.484;2023-06-24T03:50:10;1.95;;;0.80;;
80136;SDS011;69466;55.948;37.484;2023-06-24T03:52:36;2.47;;;1.00;;
80136;SDS011;69466;55.948;37.484;2023-06-24T03:55:01;3.08;;;1.00;;
80136;SDS011;69466;55.948;37.484;2023-06-24T03:57:30;2.40;;;1.00;;
80136;SDS011;69466;55.948;37.484;2023-06-24T03:59:56;3.08;;;0.90;;
80136;SDS011;69466;55.948;37.484;2023-06-24T04:02:22;2.03;;;0.90;;
80136;SDS011;69466;55.948;37.484;2023-06-24T04:04:48;3.72;;;0.90;;
80136;SDS011;69466;55.948;37.484;2023-06-24T04:07:15;2.50;;;1.00;;
80136;SDS011;69466;55.948;37.484;2023-06-24T04:09:56;2.92;;;0.90;;
80136;SDS011;69466;55.948;37.484;2023-06-24T04:12:22;3.58;;;0.90;;
80136;SDS011;69466;55.948;37.484;2023-06-24T04:14:48;2.47;;;1.00;;
80136;SDS011;69466;55.948;37.484;2023-06-24T04:17:14;2.45;;;1.15;;
80136;SDS011;69466;55.948;37.484;2023-06-24T04:19:40;2.40;;;0.95;;
80136;SDS011;69466;55.948;37.484;2023-06-24T04:22:08;2.53;;;1.15;;
80136;SDS011;69466;55.948;37.484;2023-06-24T04:24:33;2.75;;;0.80;;
80136;SDS011;69466;55.948;37.484;2023-06-24T04:27:00;3.55;;;0.75;;
80136;SDS011;69466;55.948;37.484;2023-06-24T04:29:25;2.67;;;0.90;;
80136;SDS011;69466;55.948;37.484;2023-06-24T04:31:51;3.05;;;0.90;;
80136;SDS011;69466;55.948;37.484;2023-06-24T04:34:17;2.42;;;0.82;;
80136;SDS011;69466;55.948;37.484;2023-06-24T04:36:43;2.42;;;1.30;;
80136;SDS011;69466;55.948;37.484;2023-06-24T04:39:09;3.95;;;1.10;;
80136;SDS011;69466;55.948;37.484;2023-06-24T04:41:35;3.33;;;1.10;;
80136;SDS011;69466;55.948;37.484;2023-06-24T04:44:00;3.10;;;1.00;;
80136;SDS011;69466;55.948;37.484;2023-06-24T04:46:26;2.45;;;0.80;;
80136;SDS011;69466;55.948;37.484;2023-06-24T04:48:52;2.30;;;0.82;;
80136;SDS011;69466;55.948;37.484;2023-06-24T04:51:18;1.88;;;0.90;;
80136;SDS011;69466;55.948;37.484;2023-06-24T04:53:44;2.38;;;0.90;;
80136;SDS011;69466;55.948;37.484;2023-06-24T04:56:10;3.28;;;1.10;;
80136;SDS011;69466;55.948;37.484;2023-06-24T04:58:36;2.60;;;0.98;;
80136;SDS011;69466;55.948;37.484;2023-06-24T05:01:01;3.35;;;1.13;;
80136;SDS011;69466;55.948;37.484;2023-06-24T05:03:27;2.90;;;1.10;;
80136;SDS011;69466;55.948;37.484;2023-06-24T05:05:53;3.08;;;1.10;;
80136;SDS011;69466;55.948;37.484;2023-06-24T05:08:19;2.88;;;1.27;;
80136;SDS011;69466;55.948;37.484;2023-06-24T05:10:45;2.55;;;1.00;;
80136;SDS011;69466;55.948;37.484;2023-06-24T05:13:11;2.15;;;0.85;;
80136;SDS011;69466;55.948;37.484;2023-06-24T05:15:37;2.58;;;0.93;;
80136;SDS011;69466;55.948;37.484;2023-06-24T05:18:02;2.80;;;1.20;;
80136;SDS011;69466;55.948;37.484;2023-06-24T05:20:28;3.13;;;1.20;;
80136;SDS011;69466;55.948;37.484;2023-06-24T05:22:54;2.38;;;0.93;;
80136;SDS011;69466;55.948;37.484;2023-06-24T05:25:20;5.90;;;3.70;;
80136;SDS011;69466;55.948;37.484;2023-06-24T05:27:46;4.97;;;1.27;;
80136;SDS011;69466;55.948;37.484;2023-06-24T05:30:12;4.57;;;1.63;;
80136;SDS011;69466;55.948;37.484;2023-06-24T05:32:39;3.03;;;1.25;;
80136;SDS011;69466;55.948;37.484;2023-06-24T05:35:05;3.00;;;1.40;;
80136;SDS011;69466;55.948;37.484;2023-06-24T05:37:31;3.65;;;1.10;;
80136;SDS011;69466;55.948;37.484;2023-06-24T05:39:57;2.00;;;0.70;;
80136;SDS011;69466;55.948;37.484;2023-06-24T05:42:27;2.65;;;0.93;;
80136;SDS011;69466;55.948;37.484;2023-06-24T05:44:53;2.72;;;1.10;;
80136;SDS011;69466;55.948;37.484;2023-06-24T05:47:19;2.13;;;0.90;;
80136;SDS011;69466;55.948;37.484;2023-06-24T05:49:44;3.33;;;1.00;;
80136;SDS011;69466;55.948;37.484;2023-06-24T05:52:11;4.25;;;1.50;;
80136;SDS011;69466;55.948;37.484;2023-06-24T05:54:37;3.33;;;1.02;;
80136;SDS011;69466;55.948;37.484;2023-06-24T05:57:03;4.57;;;1.63;;
80136;SDS011;69466;55.948;37.484;2023-06-24T05:59:33;3.55;;;1.65;;
80136;SDS011;69466;55.948;37.484;2023-06-24T06:01:59;3.60;;;1.10;;
80136;SDS011;69466;55.948;37.484;2023-06-24T06:04:29;2.53;;;1.02;;
80136;SDS011;69466;55.948;37.484;2023-06-24T06:13:28;5.03;;;1.50;;
80136;SDS011;69466;55.948;37.484;2023-06-24T06:15:55;3.65;;;1.70;;
80136;SDS011;69466;55.948;37.484;2023-06-24T06:18:21;7.15;;;3.50;;
80136;SDS011;69466;55.948;37.484;2023-06-24T06:20:47;2.92;;;1.50;;
80136;SDS011;69466;55.948;37.484;2023-06-24T06:23:13;3.45;;;1.60;;
80136;SDS011;69466;55.948;37.484;2023-06-24T06:25:40;2.53;;;1.15;;
80136;SDS011;69466;55.948;37.484;2023-06-24T06:28:06;2.97;;;1.02;;
80136;SDS011;69466;55.948;37.484;2023-06-24T06:30:32;3.10;;;1.30;;
80136;SDS011;69466;55.948;37.484;2023-06-24T06:32:57;3.88;;;1.42;;
80136;SDS011;69466;55.948;37.484;2023-06-24T06:35:23;3.17;;;1.30;;
80136;SDS011;69466;55.948;37.484;2023-06-24T06:37:49;3.35;;;1.65;;
80136;SDS011;69466;55.948;37.484;2023-06-24T06:40:20;3.28;;;1.45;;
80136;SDS011;69466;55.948;37.484;2023-06-24T06:42:46;2.83;;;1.52;;
80136;SDS011;69466;55.948;37.484;2023-06-24T06:45:12;3.15;;;1.35;;
80136;SDS011;69466;55.948;37.484;2023-06-24T06:47:38;4.65;;;2.17;;
80136;SDS011;69466;55.948;37.484;2023-06-24T06:50:04;5.10;;;1.42;;
80136;SDS011;69466;55.948;37.484;2023-06-24T06:52:30;3.83;;;1.25;;
80136;SDS011;69466;55.948;37.484;2023-06-24T06:54:56;3.35;;;1.38;;
80136;SDS011;69466;55.948;37.484;2023-06-24T06:57:23;2.83;;;1.23;;
80136;SDS011;69466;55.948;37.484;2023-06-24T06:59:50;2.78;;;1.25;;
80136;SDS011;69466;55.948;37.484;2023-06-24T07:02:19;2.90;;;1.23;;
80136;SDS011;69466;55.948;37.484;2023-06-24T07:04:45;3.10;;;1.30;;
80136;SDS011;69466;55.948;37.484;2023-06-24T07:07:13;3.53;;;1.52;;
80136;SDS011;69466;55.948;37.484;2023-06-24T07:09:39;3.25;;;1.52;;
80136;SDS011;69466;55.948;37.484;2023-06-24T07:12:06;3.47;;;1.75;;
80136;SDS011;69466;55.948;37.484;2023-06-24T07:14:32;4.78;;;1.70;;
80136;SDS011;69466;55.948;37.484;2023-06-24T07:16:58;4.88;;;1.35;;
80136;SDS011;69466;55.948;37.484;2023-06-24T07:19:24;3.13;;;1.50;;
80136;SDS011;69466;55.948;37.484;2023-06-24T07:21:52;3.45;;;1.60;;
80136;SDS011;69466;55.948;37.484;2023-06-24T07:24:19;3.50;;;1.45;;
80136;SDS011;69466;55.948;37.484;2023-06-24T07:26:44;3.00;;;1.40;;
80136;SDS011;69466;55.948;37.484;2023-06-24T07:29:10;4.78;;;1.50;;
80136;SDS011;69466;55.948;37.484;2023-06-24T07:31:36;4.47;;;1.30;;
80136;SDS011;69466;55.948;37.484;2023-06-24T07:34:02;4.00;;;1.70;;
80136;SDS011;69466;55.948;37.484;2023-06-24T07:36:30;2.70;;;1.30;;
80136;SDS011;69466;55.948;37.484;2023-06-24T07:38:56;3.45;;;1.65;;
80136;SDS011;69466;55.948;37.484;2023-06-24T07:41:23;3.25;;;1.38;;
80136;SDS011;69466;55.948;37.484;2023-06-24T07:43:49;2.90;;;1.30;;
80136;SDS011;69466;55.948;37.484;2023-06-24T07:46:15;4.35;;;1.60;;
80136;SDS011;69466;55.948;37.484;2023-06-24T07:48:41;4.88;;;1.48;;
80136;SDS011;69466;55.948;37.484;2023-06-24T07:51:07;3.30;;;1.63;;
80136;SDS011;69466;55.948;37.484;2023-06-24T07:53:34;3.80;;;1.80;;
80136;SDS011;69466;55.948;37.484;2023-06-24T07:56:00;4.22;;;2.03;;
80136;SDS011;69466;55.948;37.484;2023-06-24T07:58:26;7.32;;;2.40;;
80136;SDS011;69466;55.948;37.484;2023-06-24T08:00:52;3.97;;;1.63;;
80136;SDS011;69466;55.948;37.484;2023-06-24T08:03:18;3.90;;;1.55;;
80136;SDS011;69466;55.948;37.484;2023-06-24T08:05:44;3.85;;;1.70;;
80136;SDS011;69466;55.948;37.484;2023-06-24T08:08:10;4.05;;;2.33;;
80136;SDS011;69466;55.948;37.484;2023-06-24T08:10:35;4.20;;;1.88;;
80136;SDS011;69466;55.948;37.484;2023-06-24T08:13:02;4.68;;;2.17;;
80136;SDS011;69466;55.948;37.484;2023-06-24T08:15:28;3.78;;;1.65;;
80136;SDS011;69466;55.948;37.484;2023-06-24T08:17:54;4.18;;;2.03;;
80136;SDS011;69466;55.948;37.484;2023-06-24T08:20:20;4.20;;;2.00;;
80136;SDS011;69466;55.948;37.484;2023-06-24T08:22:47;4.13;;;2.10;;
80136;SDS011;69466;55.948;37.484;2023-06-24T08:25:13;3.85;;;1.52;;
80136;SDS011;69466;55.948;37.484;2023-06-24T08:27:39;3.28;;;1.63;;
80136;SDS011;69466;55.948;37.484;2023-06-24T08:30:07;4.47;;;1.88;;
80136;SDS011;69466;55.948;37.484;2023-06-24T08:32:34;3.78;;;1.70;;
80136;SDS011;69466;55.948;37.484;2023-06-24T08:35:00;5.82;;;2.00;;
80136;SDS011;69466;55.948;37.484;2023-06-24T08:37:29;4.22;;;1.95;;
80136;SDS011;69466;55.948;37.484;2023-06-24T08:39:55;6.90;;;2.70;;
80136;SDS011;69466;55.948;37.484;2023-06-24T08:42:21;6.85;;;3.80;;
80136;SDS011;69466;55.948;37.484;2023-06-24T08:44:48;6.43;;;3.10;;
80136;SDS011;69466;55.948;37.484;2023-06-24T08:47:15;10.85;;;5.07;;
80136;SDS011;69466;55.948;37.484;2023-06-24T08:49:48;7.68;;;4.40;;
80136;SDS011;69466;55.948;37.484;2023-06-24T08:52:21;8.15;;;4.30;;
80136;SDS011;69466;55.948;37.484;2023-06-24T08:54:51;8.23;;;4.90;;
80136;SDS011;69466;55.948;37.484;2023-06-24T08:57:21;10.00;;;5.45;;
80136;SDS011;69466;55.948;37.484;2023-06-24T08:59:46;11.65;;;5.00;;
80136;SDS011;69466;55.948;37.484;2023-06-24T09:02:12;9.13;;;4.22;;
80136;SDS011;69466;55.948;37.484;2023-06-24T09:04:39;6.05;;;4.50;;
80136;SDS011;69466;55.948;37.484;2023-06-24T09:07:06;7.47;;;4.80;;
80136;SDS011;69466;55.948;37.484;2023-06-24T09:09:32;7.43;;;4.22;;
80136;SDS011;69466;55.948;37.484;2023-06-24T09:11:59;6.38;;;4.50;;
80136;SDS011;69466;55.948;37.484;2023-06-24T09:14:27;7.50;;;4.30;;
80136;SDS011;69466;55.948;37.484;2023-06-24T09:16:55;6.32;;;4.93;;
80136;SDS011;69466;55.948;37.484;2023-06-24T09:19:24;9.77;;;5.28;;
80136;SDS011;69466;55.948;37.484;2023-06-24T09:22:01;8.60;;;6.05;;
80136;SDS011;69466;55.948;37.484;2023-06-24T09:24:32;7.60;;;5.00;;
80136;SDS011;69466;55.948;37.484;2023-06-24T09:26:59;7.47;;;4.80;;
80136;SDS011;69466;55.948;37.484;2023-06-24T09:29:26;6.57;;;4.80;;
80136;SDS011;69466;55.948;37.484;2023-06-24T09:31:52;7.38;;;5.50;;
80136;SDS011;69466;55.948;37.484;2023-06-24T09:34:21;7.95;;;4.70;;
80136;SDS011;69466;55.948;37.484;2023-06-24T09:36:54;7.18;;;4.85;;
80136;SDS011;69466;55.948;37.484;2023-06-24T09:39:24;8.15;;;5.50;;
80136;SDS011;69466;55.948;37.484;2023-06-24T09:41:55;7.72;;;5.70;;
80136;SDS011;69466;55.948;37.484;2023-06-24T09:44:26;6.70;;;4.88;;
80136;SDS011;69466;55.948;37.484;2023-06-24T09:46:52;7.47;;;5.18;;
80136;SDS011;69466;55.948;37.484;2023-06-24T09:49:19;7.28;;;4.93;;
80136;SDS011;69466;55.948;37.484;2023-06-24T09:51:46;7.82;;;4.45;;
80136;SDS011;69466;55.948;37.484;2023-06-24T09:54:14;9.93;;;5.15;;
80136;SDS011;69466;55.948;37.484;2023-06-24T09:56:50;10.65;;;4.57;;
80136;SDS011;69466;55.948;37.484;2023-06-24T09:59:21;8.30;;;5.25;;
80136;SDS011;69466;55.948;37.484;2023-06-24T10:01:51;7.43;;;4.95;;
80136;SDS011;69466;55.948;37.484;2023-06-24T10:04:19;7.57;;;4.75;;
80136;SDS011;69466;55.948;37.484;2023-06-24T10:06:49;5.80;;;4.22;;
80136;SDS011;69466;55.948;37.484;2023-06-24T10:09:16;8.68;;;4.40;;
80136;SDS011;69466;55.948;37.484;2023-06-24T10:11:43;7.15;;;4.30;;
80136;SDS011;69466;55.948;37.484;2023-06-24T10:14:14;7.93;;;4.95;;
80136;SDS011;69466;55.948;37.484;2023-06-24T10:16:41;7.40;;;4.15;;
80136;SDS011;69466;55.948;37.484;2023-06-24T10:19:08;10.80;;;5.80;;
80136;SDS011;69466;55.948;37.484;2023-06-24T10:21:47;7.50;;;5.10;;
80136;SDS011;69466;55.948;37.484;2023-06-24T10:24:29;11.10;;;5.90;;
80136;SDS011;69466;55.948;37.484;2023-06-24T10:27:03;9.98;;;5.90;;
80136;SDS011;69466;55.948;37.484;2023-06-24T10:29:33;10.13;;;7.07;;
80136;SDS011;69466;55.948;37.484;2023-06-24T10:32:08;7.20;;;5.28;;
80136;SDS011;69466;55.948;37.484;2023-06-24T10:34:39;6.05;;;4.43;;
80136;SDS011;69466;55.948;37.484;2023-06-24T10:39:48;9.07;;;4.72;;
80136;SDS011;69466;55.948;37.484;2023-06-24T10:44:49;5.35;;;3.78;;
80136;SDS011;69466;55.948;37.484;2023-06-24T10:47:17;7.32;;;4.50;;
80136;SDS011;69466;55.948;37.484;2023-06-24T10:49:43;5.50;;;3.60;;
80136;SDS011;69466;55.948;37.484;2023-06-24T10:52:09;6.43;;;4.60;;
80136;SDS011;69466;55.948;37.484;2023-06-24T10:54:37;6.28;;;4.22;;
80136;SDS011;69466;55.948;37.484;2023-06-24T10:57:04;5.97;;;4.47;;
80136;SDS011;69466;55.948;37.484;2023-06-24T10:59:34;7.22;;;4.80;;
80136;SDS011;69466;55.948;37.484;2023-06-24T11:02:00;5.50;;;3.70;;
80136;SDS011;69466;55.948;37.484;2023-06-24T11:04:26;5.68;;;4.25;;
80136;SDS011;69466;55.948;37.484;2023-06-24T11:06:58;7.32;;;4.15;;
80136;SDS011;69466;55.948;37.484;2023-06-24T11:09:26;10.02;;;5.13;;
80136;SDS011;69466;55.948;37.484;2023-06-24T11:11:52;6.68;;;4.22;;
80136;SDS011;69466;55.948;37.484;2023-06-24T11:14:21;5.78;;;3.72;;
80136;SDS011;69466;55.948;37.484;2023-06-24T11:16:47;6.78;;;4.63;;
80136;SDS011;69466;55.948;37.484;2023-06-24T11:19:13;6.50;;;4.70;;
80136;SDS011;69466;55.948;37.484;2023-06-24T11:21:40;6.65;;;5.07;;
80136;SDS011;69466;55.948;37.484;2023-06-24T11:24:05;5.38;;;3.55;;
80136;SDS011;69466;55.948;37.484;2023-06-24T11:26:32;5.32;;;3.55;;
80136;SDS011;69466;55.948;37.484;2023-06-24T11:28:59;5.40;;;3.55;;
80136;SDS011;69466;55.948;37.484;2023-06-24T11:31:25;6.40;;;4.28;;
80136;SDS011;69466;55.948;37.484;2023-06-24T11:33:51;6.65;;;3.13;;
80136;SDS011;69466;55.948;37.484;2023-06-24T11:36:20;6.35;;;3.95;;
80136;SDS011;69466;55.948;37.484;2023-06-24T11:38:46;6.05;;;3.75;;
80136;SDS011;69466;55.948;37.484;2023-06-24T11:41:13;10.57;;;3.65;;
80136;SDS011;69466;55.948;37.484;2023-06-24T11:43:44;6.00;;;3.03;;
80136;SDS011;69466;55.948;37.484;2023-06-24T11:46:32;5.72;;;3.50;;
80136;SDS011;69466;55.948;37.484;2023-06-24T11:49:05;6.53;;;3.53;;
80136;SDS011;69466;55.948;37.484;2023-06-24T11:51:32;6.93;;;3.45;;
80136;SDS011;69466;55.948;37.484;2023-06-24T11:54:02;7.90;;;3.83;;
80136;SDS011;69466;55.948;37.484;2023-06-24T11:56:38;7.72;;;3.75;;
80136;SDS011;69466;55.948;37.484;2023-06-24T11:59:15;7.60;;;4.53;;
80136;SDS011;69466;55.948;37.484;2023-06-24T12:01:53;8.93;;;5.15;;
80136;SDS011;69466;55.948;37.484;2023-06-24T12:04:20;7.38;;;3.90;;
80136;SDS011;69466;55.948;37.484;2023-06-24T12:06:48;8.27;;;4.25;;
80136;SDS011;69466;55.948;37.484;2023-06-24T12:09:14;8.48;;;4.40;;
80136;SDS011;69466;55.948;37.484;2023-06-24T12:11:41;5.32;;;3.80;;
80136;SDS011;69466;55.948;37.484;2023-06-24T12:14:07;9.27;;;4.57;;
80136;SDS011;69466;55.948;37.484;2023-06-24T12:16:32;9.90;;;4.43;;
80136;SDS011;69466;55.948;37.484;2023-06-24T12:18:58;7.97;;;4.15;;
80136;SDS011;69466;55.948;37.484;2023-06-24T12:21:24;6.45;;;3.95;;
80136;SDS011;69466;55.948;37.484;2023-06-24T12:23:50;9.63;;;5.55;;
80136;SDS011;69466;55.948;37.484;2023-06-24T12:26:16;10.02;;;7.38;;
80136;SDS011;69466;55.948;37.484;2023-06-24T12:28:41;6.00;;;3.78;;
80136;SDS011;69466;55.948;37.484;2023-06-24T12:31:07;8.32;;;4.47;;
80136;SDS011;69466;55.948;37.484;2023-06-24T12:33:33;31.08;;;21.55;;
80136;SDS011;69466;55.948;37.484;2023-06-24T12:35:59;8.35;;;5.15;;
80136;SDS011;69466;55.948;37.484;2023-06-24T12:38:25;11.07;;;4.85;;
80136;SDS011;69466;55.948;37.484;2023-06-24T12:40:51;5.82;;;3.83;;
80136;SDS011;69466;55.948;37.484;2023-06-24T12:43:17;6.22;;;3.90;;
80136;SDS011;69466;55.948;37.484;2023-06-24T12:45:43;6.15;;;4.05;;
80136;SDS011;69466;55.948;37.484;2023-06-24T12:48:12;6.93;;;4.22;;
80136;SDS011;69466;55.948;37.484;2023-06-24T12:50:39;6.95;;;4.60;;
80136;SDS011;69466;55.948;37.484;2023-06-24T12:53:04;8.90;;;4.47;;
80136;SDS011;69466;55.948;37.484;2023-06-24T12:55:30;7.57;;;3.67;;
80136;SDS011;69466;55.948;37.484;2023-06-24T12:57:56;9.05;;;4.80;;
80136;SDS011;69466;55.948;37.484;2023-06-24T13:00:23;8.65;;;4.82;;
80136;SDS011;69466;55.948;37.484;2023-06-24T13:02:49;6.38;;;4.22;;
80136;SDS011;69466;55.948;37.484;2023-06-24T13:05:17;7.75;;;4.78;;
80136;SDS011;69466;55.948;37.484;2023-06-24T13:07:43;12.02;;;4.70;;
80136;SDS011;69466;55.948;37.484;2023-06-24T13:10:09;8.48;;;4.28;;
80136;SDS011;69466;55.948;37.484;2023-06-24T13:12:35;9.70;;;5.05;;
80136;SDS011;69466;55.948;37.484;2023-06-24T13:15:02;6.55;;;4.50;;
80136;SDS011;69466;55.948;37.484;2023-06-24T13:17:32;9.23;;;4.50;;
80136;SDS011;69466;55.948;37.484;2023-06-24T13:19:58;7.95;;;4.85;;
80136;SDS011;69466;55.948;37.484;2023-06-24T13:22:24;10.48;;;4.60;;
80136;SDS011;69466;55.948;37.484;2023-06-24T13:24:50;8.75;;;4.50;;
80136;SDS011;69466;55.948;37.484;2023-06-24T13:27:16;6.15;;;4.35;;
80136;SDS011;69466;55.948;37.484;2023-06-24T13:29:42;5.70;;;3.33;;
80136;SDS011;69466;55.948;37.484;2023-06-24T13:32:08;9.05;;;3.92;;
80136;SDS011;69466;55.948;37.484;2023-06-24T13:34:34;7.35;;;3.33;;
80136;SDS011;69466;55.948;37.484;2023-06-24T13:37:00;7.00;;;3.90;;
80136;SDS011;69466;55.948;37.484;2023-06-24T13:39:26;7.50;;;4.05;;
80136;SDS011;69466;55.948;37.484;2023-06-24T13:41:53;13.38;;;4.32;;
80136;SDS011;69466;55.948;37.484;2023-06-24T13:44:19;10.60;;;4.13;;
80136;SDS011;69466;55.948;37.484;2023-06-24T13:46:45;7.85;;;4.63;;
80136;SDS011;69466;55.948;37.484;2023-06-24T13:49:11;10.93;;;4.35;;
80136;SDS011;69466;55.948;37.484;2023-06-24T13:51:37;9.02;;;4.03;;
80136;SDS011;69466;55.948;37.484;2023-06-24T13:54:03;7.53;;;3.95;;
80136;SDS011;69466;55.948;37.484;2023-06-24T13:56:30;7.25;;;3.85;;
80136;SDS011;69466;55.948;37.484;2023-06-24T13:58:56;6.45;;;3.28;;
80136;SDS011;69466;55.948;37.484;2023-06-24T14:01:22;7.10;;;3.50;;
80136;SDS011;69466;55.948;37.484;2023-06-24T14:03:48;6.28;;;3.03;;
80136;SDS011;69466;55.948;37.484;2023-06-24T14:06:16;7.63;;;3.78;;
80136;SDS011;69466;55.948;37.484;2023-06-24T14:08:44;7.55;;;3.78;;
80136;SDS011;69466;55.948;37.484;2023-06-24T14:11:10;7.55;;;3.95;;
80136;SDS011;69466;55.948;37.484;2023-06-24T14:13:37;10.27;;;3.95;;
80136;SDS011;69466;55.948;37.484;2023-06-24T14:16:03;4.85;;;3.03;;
80136;SDS011;69466;55.948;37.484;2023-06-24T14:18:30;6.10;;;3.30;;
80136;SDS011;69466;55.948;37.484;2023-06-24T14:21:00;5.60;;;2.88;;
80136;SDS011;69466;55.948;37.484;2023-06-24T14:23:27;5.97;;;3.53;;
80136;SDS011;69466;55.948;37.484;2023-06-24T14:25:53;8.55;;;3.65;;
80136;SDS011;69466;55.948;37.484;2023-06-24T14:28:20;4.40;;;2.65;;
80136;SDS011;69466;55.948;37.484;2023-06-24T14:30:46;8.15;;;3.28;;
80136;SDS011;69466;55.948;37.484;2023-06-24T14:33:12;7.90;;;4.05;;
80136;SDS011;69466;55.948;37.484;2023-06-24T14:35:38;9.63;;;5.10;;
80136;SDS011;69466;55.948;37.484;2023-06-24T14:38:04;9.30;;;4.30;;
80136;SDS011;69466;55.948;37.484;2023-06-24T14:40:31;14.75;;;6.10;;
80136;SDS011;69466;55.948;37.484;2023-06-24T14:42:57;9.00;;;3.97;;
80136;SDS011;69466;55.948;37.484;2023-06-24T14:45:23;10.32;;;3.80;;
80136;SDS011;69466;55.948;37.484;2023-06-24T14:47:49;7.50;;;3.33;;
80136;SDS011;69466;55.948;37.484;2023-06-24T14:50:16;6.85;;;3.15;;
80136;SDS011;69466;55.948;37.484;2023-06-24T14:52:42;7.18;;;3.25;;
80136;SDS011;69466;55.948;37.484;2023-06-24T14:55:08;8.52;;;3.63;;
80136;SDS011;69466;55.948;37.484;2023-06-24T14:57:34;14.90;;;4.70;;
80136;SDS011;69466;55.948;37.484;2023-06-24T15:00:01;9.55;;;4.30;;
80136;SDS011;69466;55.948;37.484;2023-06-24T15:02:30;9.68;;;3.67;;